createdAt,value
2018-06-11T00:01:31.358Z,45.03
2018-06-11T00:04:01.733Z,44.30
2018-06-11T00:06:32.881Z,47.43
2018-06-11T00:09:04.051Z,45.77
2018-06-11T00:11:34.422Z,40.43
2018-06-11T00:14:04.801Z,39.60
2018-06-11T00:16:35.188Z,43.43
2018-06-11T00:19:05.567Z,47.57
2018-06-11T00:21:36.902Z,46.40
2018-06-11T00:24:07.307Z,46.77
2018-06-11T00:26:37.689Z,45.27
2018-06-11T00:29:29.496Z,43.20
2018-06-11T00:31:59.809Z,38.27
2018-06-11T00:34:30.369Z,42.83
2018-06-11T00:37:00.778Z,38.63
2018-06-11T00:39:31.144Z,36.10
2018-06-11T00:42:01.520Z,29.70
2018-06-11T00:44:31.933Z,38.00
2018-06-11T00:47:02.310Z,40.23
2018-06-11T00:49:32.685Z,42.27
2018-06-11T00:52:03.089Z,47.40
2018-06-11T00:54:34.490Z,46.93
2018-06-11T00:57:04.862Z,46.67
2018-06-11T00:59:35.202Z,41.90
2018-06-11T01:02:05.571Z,41.57
2018-06-11T01:04:40.043Z,49.13
2018-06-11T01:07:10.434Z,53.23
2018-06-11T01:09:40.793Z,43.67
2018-06-11T01:12:11.825Z,50.27
2018-06-11T01:14:42.227Z,46.27
2018-06-11T01:17:31.711Z,48.97
2018-06-11T01:20:02.120Z,48.17
2018-06-11T01:22:36.583Z,47.27
2018-06-11T01:25:06.956Z,48.83
2018-06-11T01:27:37.368Z,45.47
2018-06-11T01:30:08.477Z,45.03
2018-06-11T01:32:38.845Z,43.83
2018-06-11T01:35:09.242Z,47.80
2018-06-11T01:37:40.322Z,46.70
2018-06-11T01:40:10.694Z,49.27
2018-06-11T01:42:41.738Z,44.93
2018-06-11T01:45:12.113Z,49.73
2018-06-11T01:47:42.492Z,46.50
2018-06-11T01:50:12.878Z,54.13
2018-06-11T01:52:47.336Z,45.33
2018-06-11T01:55:17.711Z,45.63
2018-06-11T01:57:48.112Z,40.30
2018-06-11T02:00:19.233Z,46.80
2018-06-11T02:02:49.611Z,42.07
2018-06-11T02:05:20.016Z,47.17
2018-06-11T02:07:51.163Z,42.40
2018-06-11T02:10:21.540Z,45.83
2018-06-11T02:12:51.948Z,42.73
2018-06-11T02:15:26.414Z,47.03
2018-06-11T02:17:56.797Z,44.87
2018-06-11T02:20:33.313Z,48.67
2018-06-11T02:23:04.461Z,48.00
2018-06-11T02:25:34.777Z,38.37
2018-06-11T02:28:05.370Z,48.10
2018-06-11T02:30:57.931Z,38.60
2018-06-11T02:33:28.342Z,47.03
2018-06-11T02:35:59.732Z,47.30
2018-06-11T02:38:30.102Z,43.17
2018-06-11T02:41:00.493Z,44.80
2018-06-11T02:43:30.875Z,46.13
2018-06-11T02:46:01.251Z,42.23
2018-06-11T02:48:32.412Z,37.33
2018-06-11T02:51:02.793Z,33.97
2018-06-11T02:53:33.171Z,38.37
2018-06-11T02:56:03.509Z,38.00
2018-06-11T02:58:33.829Z,39.17
2018-06-11T03:01:04.205Z,38.57
2018-06-11T03:03:34.605Z,33.93
2018-06-11T03:06:26.400Z,37.90
2018-06-11T03:08:56.799Z,44.73
2018-06-11T03:11:27.937Z,38.83
2018-06-11T03:13:58.319Z,32.63
2018-06-11T03:16:34.859Z,39.70
2018-06-11T03:19:07.026Z,38.13
2018-06-11T03:21:37.399Z,32.40
2018-06-11T03:24:07.813Z,33.80
2018-06-11T03:26:38.891Z,39.47
2018-06-11T03:29:09.261Z,36.13
2018-06-11T03:31:39.723Z,34.20
2018-06-11T03:34:17.264Z,32.80
2018-06-11T03:36:47.667Z,40.30
2018-06-11T03:39:18.043Z,35.73
2018-06-11T03:41:48.360Z,30.30
2018-06-11T03:44:18.761Z,35.33
2018-06-11T03:46:49.901Z,31.60
2018-06-11T03:49:21.053Z,41.03
2018-06-11T03:51:51.452Z,48.77
2018-06-11T03:54:21.830Z,42.33
2018-06-11T03:56:52.208Z,54.33
2018-06-11T03:59:22.603Z,30.70
2018-06-11T04:01:52.981Z,31.87
2018-06-11T04:04:24.122Z,33.13
2018-06-11T04:09:43.765Z,28.93
2018-06-11T04:12:14.171Z,26.43
2018-06-11T04:14:44.551Z,26.17
2018-06-11T04:17:14.927Z,26.47
2018-06-11T04:19:45.325Z,29.27
2018-06-11T04:22:16.401Z,28.70
2018-06-11T04:24:46.778Z,29.73
2018-06-11T04:27:17.179Z,30.33
2018-06-11T04:29:50.619Z,27.13
2018-06-11T04:32:21.768Z,29.40
2018-06-11T04:34:52.174Z,32.43
2018-06-11T04:37:22.545Z,30.13
2018-06-11T04:39:52.921Z,23.27
2018-06-11T04:42:23.315Z,23.97
2018-06-11T04:44:53.690Z,28.03
2018-06-11T04:47:24.835Z,25.87
2018-06-11T04:49:55.229Z,23.67
2018-06-11T04:52:25.605Z,23.73
2018-06-11T04:54:55.927Z,25.33
2018-06-11T04:57:27.090Z,27.80
2018-06-11T04:59:57.464Z,25.60
2018-06-11T05:02:27.853Z,33.43
2018-06-11T05:04:58.248Z,34.50
2018-06-11T05:07:29.396Z,30.60
2018-06-11T05:10:01.570Z,23.00
2018-06-11T05:12:31.946Z,66.00
2018-06-11T05:15:02.324Z,64.07
2018-06-11T05:17:32.694Z,41.87
2018-06-11T05:20:03.109Z,35.93
2018-06-11T05:22:36.548Z,27.10
2018-06-11T05:25:07.108Z,33.40
2018-06-11T05:27:38.142Z,39.00
2018-06-11T05:30:09.279Z,37.53
2018-06-11T05:32:40.412Z,24.97
2018-06-11T05:35:11.591Z,29.10
2018-06-11T05:37:41.967Z,32.47
2018-06-11T05:40:13.087Z,30.13
2018-06-11T05:42:45.526Z,28.33
2018-06-11T05:45:15.897Z,32.37
2018-06-11T05:47:46.277Z,30.80
2018-06-11T05:50:16.666Z,30.73
2018-06-11T05:52:48.075Z,28.37
2018-06-11T05:55:18.455Z,37.63
2018-06-11T05:57:48.852Z,29.90
2018-06-11T06:00:20.252Z,26.67
2018-06-11T06:02:51.328Z,30.03
2018-06-11T06:05:24.977Z,33.97
2018-06-11T06:07:55.535Z,29.80
2018-06-11T06:10:26.097Z,30.60
2018-06-11T06:12:56.496Z,30.33
2018-06-11T06:15:30.018Z,40.45
2018-06-11T06:18:01.627Z,32.73
2018-06-11T06:20:31.998Z,31.67
2018-06-11T06:23:05.438Z,30.90
2018-06-11T06:25:35.823Z,25.27
2018-06-11T06:28:10.291Z,29.63
2018-06-11T06:30:40.665Z,28.57
2018-06-11T06:33:11.058Z,28.57
2018-06-11T06:35:42.190Z,49.70
2018-06-11T06:38:12.565Z,46.67
2018-06-11T06:40:44.997Z,34.10
2018-06-11T06:43:16.127Z,31.20
2018-06-11T06:45:46.501Z,41.27
2018-06-11T06:48:18.949Z,36.73
2018-06-11T06:50:49.328Z,30.67
2018-06-11T06:53:41.190Z,34.27
2018-06-11T06:56:13.571Z,31.17
2018-06-11T06:58:44.712Z,32.27
2018-06-11T07:01:15.123Z,31.50
2018-06-11T07:03:45.502Z,34.03
2018-06-11T07:06:15.815Z,31.73
2018-06-11T07:08:46.850Z,35.60
2018-06-11T07:11:17.412Z,31.97
2018-06-11T07:13:47.782Z,33.10
2018-06-11T07:16:18.166Z,36.17
2018-06-11T07:18:51.295Z,34.77
2018-06-11T07:21:21.610Z,32.53
2018-06-11T07:23:52.048Z,34.23
2018-06-11T07:26:22.364Z,33.77
2018-06-11T07:28:52.746Z,32.00
2018-06-11T07:31:23.255Z,34.70
2018-06-11T07:33:53.526Z,35.07
2018-06-11T07:36:24.903Z,32.67
2018-06-11T07:38:55.243Z,37.17
2018-06-11T07:41:26.388Z,31.83
2018-06-11T07:43:57.519Z,34.63
2018-06-11T07:46:28.099Z,35.37
2018-06-11T07:48:58.475Z,35.33
2018-06-11T07:51:28.849Z,30.93
2018-06-11T07:54:00.279Z,31.17
2018-06-11T07:56:30.652Z,34.20
2018-06-11T07:59:01.031Z,31.97
2018-06-11T08:01:31.434Z,30.30
2018-06-11T08:04:01.803Z,33.23
2018-06-11T08:06:32.171Z,30.93
2018-06-11T08:09:02.569Z,33.07
2018-06-11T08:11:38.827Z,34.80
2018-06-11T08:14:09.213Z,31.30
2018-06-11T08:16:40.539Z,32.27
2018-06-11T08:19:10.911Z,32.20
2018-06-11T08:21:41.312Z,28.43
2018-06-11T08:26:59.670Z,29.47
2018-06-11T08:29:30.030Z,31.00
2018-06-11T08:32:00.404Z,26.03
2018-06-11T08:34:30.805Z,29.00
2018-06-11T08:37:03.230Z,31.47
2018-06-11T08:39:33.592Z,30.57
2018-06-11T08:42:04.174Z,29.63
2018-06-11T08:44:34.488Z,30.30
2018-06-11T08:47:04.862Z,30.03
2018-06-11T08:49:35.263Z,29.70
2018-06-11T08:52:06.407Z,31.90
2018-06-11T08:54:36.823Z,31.27
2018-06-11T08:57:10.177Z,27.77
2018-06-11T08:59:42.601Z,30.30
2018-06-11T09:02:13.765Z,29.23
2018-06-11T09:04:44.197Z,31.37
2018-06-11T09:07:15.529Z,26.33
2018-06-11T09:09:46.665Z,29.67
2018-06-11T09:12:17.059Z,31.37
2018-06-11T09:14:48.459Z,30.67
2018-06-11T09:17:19.599Z,30.83
2018-06-11T09:19:50.771Z,26.47
2018-06-11T09:22:21.145Z,30.47
2018-06-11T09:24:51.507Z,30.57
2018-06-11T09:27:21.903Z,32.00
2018-06-11T09:29:52.274Z,31.40
2018-06-11T09:32:22.653Z,29.10
2018-06-11T09:34:53.052Z,29.47
2018-06-11T09:37:27.517Z,30.83
2018-06-11T09:39:58.675Z,30.30
2018-06-11T09:42:29.054Z,30.23
2018-06-11T09:44:59.427Z,30.20
2018-06-11T09:47:30.597Z,28.23
2018-06-11T09:50:00.912Z,30.33
2018-06-11T09:52:31.224Z,31.27
2018-06-11T09:55:01.628Z,28.77
2018-06-11T09:57:32.002Z,28.47
2018-06-11T10:00:02.382Z,33.77
2018-06-11T10:02:33.553Z,28.00
2018-06-11T10:05:03.928Z,30.43
2018-06-11T10:07:34.299Z,27.43
2018-06-11T10:10:04.700Z,30.30
2018-06-11T10:12:35.097Z,33.73
2018-06-11T10:15:05.394Z,30.03
2018-06-11T10:17:35.786Z,29.10
2018-06-11T10:20:07.949Z,32.07
2018-06-11T10:22:38.516Z,33.43
2018-06-11T10:25:08.908Z,37.10
2018-06-11T10:27:40.051Z,31.87
2018-06-11T10:30:10.370Z,34.80
2018-06-11T10:32:40.769Z,35.10
2018-06-11T10:35:33.445Z,30.77
2018-06-11T10:38:03.842Z,38.20
2018-06-11T10:40:35.239Z,35.33
2018-06-11T10:43:06.378Z,35.40
2018-06-11T10:45:38.221Z,32.63
2018-06-11T10:48:08.593Z,31.30
2018-06-11T10:50:38.967Z,29.87
2018-06-11T10:53:09.369Z,30.67
2018-06-11T10:55:46.904Z,31.23
2018-06-11T10:58:17.309Z,31.87
2018-06-11T11:00:47.683Z,33.70
2018-06-11T11:03:18.059Z,29.73
2018-06-11T11:05:48.460Z,27.13
2018-06-11T11:08:20.882Z,26.40
2018-06-11T11:10:51.193Z,27.70
2018-06-11T11:13:21.595Z,27.97
2018-06-11T11:15:56.768Z,25.07
2018-06-11T11:18:27.146Z,25.00
2018-06-11T11:20:57.549Z,24.47
2018-06-11T11:23:28.686Z,23.63
2018-06-11T11:25:59.827Z,23.47
2018-06-11T11:28:30.993Z,22.97
2018-06-11T11:31:01.368Z,20.87
2018-06-11T11:33:31.734Z,21.50
2018-06-11T11:36:02.898Z,20.67
2018-06-11T11:38:33.208Z,21.37
2018-06-11T11:41:03.583Z,20.23
2018-06-11T11:43:33.974Z,18.63
2018-06-11T11:46:04.534Z,18.77
2018-06-11T11:48:35.932Z,16.03
2018-06-11T11:51:07.091Z,16.77
2018-06-11T11:53:37.465Z,14.80
2018-06-11T11:56:07.845Z,15.57
2018-06-11T11:58:38.246Z,16.00
2018-06-11T12:01:08.618Z,13.83
2018-06-11T12:03:45.157Z,13.97
2018-06-11T12:06:15.468Z,12.57
2018-06-11T12:08:46.610Z,11.00
2018-06-11T12:11:17.768Z,12.77
2018-06-11T12:13:48.950Z,13.67
2018-06-11T12:16:20.022Z,11.70
2018-06-11T12:18:50.421Z,13.27
2018-06-11T12:21:28.108Z,12.53
2018-06-11T12:23:58.498Z,13.13
2018-06-11T12:26:29.639Z,11.97
2018-06-11T12:29:00.199Z,12.73
2018-06-11T12:31:30.541Z,12.20
2018-06-11T12:34:04.942Z,12.10
2018-06-11T12:36:35.317Z,13.37
2018-06-11T12:39:05.709Z,12.77
2018-06-11T12:44:28.923Z,10.03
2018-06-11T12:46:59.291Z,10.97
2018-06-11T12:49:29.656Z,13.00
2018-06-11T12:52:20.449Z,9.97
2018-06-11T12:54:52.806Z,10.83
2018-06-11T12:57:23.178Z,10.43
2018-06-11T12:59:53.583Z,10.37
2018-06-11T13:02:23.954Z,10.77
2018-06-11T13:04:55.093Z,12.00
2018-06-11T13:07:25.440Z,10.20
2018-06-11T13:09:56.572Z,10.03
2018-06-11T13:12:27.710Z,10.43
2018-06-11T13:14:58.881Z,11.50
2018-06-11T13:17:29.248Z,10.43
2018-06-11T13:19:59.621Z,10.80
2018-06-11T13:22:30.019Z,10.87
2018-06-11T13:25:00.681Z,10.00
2018-06-11T13:27:31.846Z,11.43
2018-06-11T13:30:04.968Z,8.90
2018-06-11T13:32:35.333Z,11.07
2018-06-11T13:35:06.465Z,7.97
2018-06-11T13:37:36.850Z,10.37
2018-06-11T13:40:07.161Z,10.73
2018-06-11T13:42:37.545Z,10.37
2018-06-11T13:45:07.939Z,12.17
2018-06-11T13:47:42.573Z,8.47
2018-06-11T13:50:14.011Z,10.97
2018-06-11T13:52:45.388Z,9.60
2018-06-11T13:55:15.762Z,10.33
2018-06-11T13:57:46.156Z,15.00
2018-06-11T14:00:17.293Z,10.50
2018-06-11T14:02:47.662Z,10.57
2018-06-11T14:05:18.069Z,11.60
2018-06-11T14:07:49.207Z,11.00
2018-06-11T14:10:20.332Z,12.27
2018-06-11T14:12:50.731Z,13.37
2018-06-11T14:15:22.308Z,11.67
2018-06-11T14:17:52.677Z,13.93
2018-06-11T14:20:23.097Z,11.77
2018-06-11T14:22:53.464Z,13.17
2018-06-11T14:25:28.909Z,13.80
2018-06-11T14:28:03.362Z,13.03
2018-06-11T14:30:33.733Z,11.90
2018-06-11T14:33:04.122Z,13.37
2018-06-11T14:35:35.263Z,12.60
2018-06-11T14:38:06.396Z,12.17
2018-06-11T14:40:36.798Z,13.53
2018-06-11T14:43:11.579Z,13.00
2018-06-11T14:45:41.946Z,12.10
2018-06-11T14:48:15.138Z,13.47
2018-06-11T14:51:04.877Z,13.33
2018-06-11T14:53:36.042Z,13.37
2018-06-11T14:56:06.421Z,13.53
2018-06-11T14:58:36.978Z,12.73
2018-06-11T15:01:07.382Z,11.00
2018-06-11T15:03:38.390Z,14.00
2018-06-11T15:06:10.794Z,12.63
2018-06-11T15:08:41.193Z,12.27
2018-06-11T15:11:13.610Z,11.13
2018-06-11T15:13:44.749Z,12.30
2018-06-11T15:16:15.876Z,12.03
2018-06-11T15:18:47.192Z,11.87
2018-06-11T15:21:21.621Z,12.83
2018-06-11T15:23:59.305Z,12.40
2018-06-11T15:26:30.728Z,12.90
2018-06-11T15:29:02.885Z,11.60
2018-06-11T15:31:33.254Z,13.60
2018-06-11T15:34:03.654Z,12.10
2018-06-11T15:36:36.634Z,11.90
2018-06-11T15:39:07.777Z,11.27
2018-06-11T15:41:38.874Z,14.93
2018-06-11T15:44:12.348Z,13.63
2018-06-11T15:46:48.806Z,14.13
2018-06-11T15:49:20.109Z,13.43
2018-06-11T15:51:50.485Z,12.57
2018-06-11T15:54:20.882Z,11.00
2018-06-11T15:56:52.054Z,15.67
2018-06-11T15:59:22.405Z,15.50
2018-06-11T16:02:12.373Z,11.10
2018-06-11T16:04:42.742Z,13.00
2018-06-11T16:07:13.123Z,15.90
2018-06-11T16:09:43.454Z,13.87
2018-06-11T16:12:15.863Z,13.90
2018-06-11T16:14:46.245Z,16.53
2018-06-11T16:17:16.630Z,12.50
2018-06-11T16:19:47.150Z,15.17
2018-06-11T16:22:17.530Z,15.20
2018-06-11T16:27:33.898Z,16.93
2018-06-11T16:30:04.308Z,16.00
2018-06-11T16:32:34.688Z,15.50
2018-06-11T16:35:05.065Z,15.93
2018-06-11T16:37:35.466Z,21.47
2018-06-11T16:40:08.901Z,18.97
2018-06-11T16:42:39.274Z,16.67
2018-06-11T16:45:15.070Z,17.13
2018-06-11T16:47:45.386Z,16.50
2018-06-11T16:50:15.763Z,18.40
2018-06-11T16:52:46.155Z,17.13
2018-06-11T16:55:19.011Z,19.00
2018-06-11T16:57:54.511Z,15.37
2018-06-11T17:00:31.169Z,18.93
2018-06-11T17:03:01.565Z,18.93
2018-06-11T17:05:31.931Z,17.53
2018-06-11T17:08:02.308Z,19.10
2018-06-11T17:10:32.708Z,18.67
2018-06-11T17:13:03.021Z,16.63
2018-06-11T17:15:34.153Z,14.90
2018-06-11T17:18:04.553Z,15.57
2018-06-11T17:20:34.926Z,18.17
2018-06-11T17:23:07.721Z,18.23
2018-06-11T17:25:40.786Z,18.77
2018-06-11T17:28:11.174Z,12.90
2018-06-11T17:30:44.071Z,12.00
2018-06-11T17:33:14.460Z,11.00
2018-06-11T17:35:49.952Z,17.10
2018-06-11T17:38:22.854Z,10.73
2018-06-11T17:40:56.989Z,9.70
2018-06-11T17:43:27.312Z,6.47
2018-06-11T17:46:00.483Z,6.60
2018-06-11T17:48:31.560Z,6.97
2018-06-11T17:51:02.984Z,6.67
2018-06-11T17:53:33.347Z,4.27
2018-06-11T17:56:03.734Z,8.47
2018-06-11T17:58:40.461Z,4.30
2018-06-11T18:01:13.901Z,4.03
2018-06-11T18:03:44.271Z,3.60
2018-06-11T18:06:20.795Z,4.03
2018-06-11T18:08:51.151Z,7.90
2018-06-11T18:11:21.509Z,7.37
2018-06-11T18:13:52.918Z,7.57
2018-06-11T18:16:23.291Z,8.93
2018-06-11T18:18:56.258Z,8.33
2018-06-11T18:21:34.709Z,7.53
2018-06-11T18:24:05.076Z,7.73
2018-06-11T18:26:35.451Z,9.83
2018-06-11T18:29:05.852Z,8.17
2018-06-11T18:31:43.532Z,5.83
2018-06-11T18:34:13.925Z,7.93
2018-06-11T18:36:44.289Z,8.63
2018-06-11T18:39:14.657Z,10.90
2018-06-11T18:41:45.053Z,9.37
2018-06-11T18:44:22.579Z,6.90
2018-06-11T18:46:52.983Z,11.83
2018-06-11T18:49:45.479Z,93.03
2018-06-11T18:52:19.077Z,6.00
2018-06-11T18:54:50.917Z,7.30
2018-06-11T18:57:21.289Z,6.67
2018-06-11T19:02:43.880Z,8.17
2018-06-11T19:05:16.303Z,9.33
2018-06-11T19:07:47.445Z,8.97
2018-06-11T19:10:17.802Z,8.33
2018-06-11T19:12:48.192Z,11.70
2018-06-11T19:15:18.562Z,10.40
2018-06-11T19:17:48.936Z,9.17
2018-06-11T19:20:19.344Z,11.60
2018-06-11T19:22:52.684Z,11.23
2018-06-11T19:25:23.050Z,11.87
2018-06-11T19:27:53.442Z,10.50
2018-06-11T19:30:24.553Z,9.53
2018-06-11T19:32:54.916Z,9.00
2018-06-11T19:35:28.193Z,9.00
2018-06-11T19:37:58.483Z,7.33
2018-06-11T19:40:28.859Z,10.50
2018-06-11T19:42:59.247Z,8.73
2018-06-11T19:45:30.635Z,10.17
2018-06-11T19:48:01.000Z,8.93
2018-06-11T19:50:51.876Z,10.20
2018-06-11T19:53:24.217Z,12.80
2018-06-11T19:55:57.932Z,9.10
2018-06-11T19:58:29.056Z,8.77
2018-06-11T20:00:59.365Z,7.43
2018-06-11T20:03:29.745Z,8.13
2018-06-11T20:06:00.115Z,8.37
2018-06-11T20:08:36.300Z,8.40
2018-06-11T20:11:11.625Z,7.50
2018-06-11T20:13:44.631Z,7.80
2018-06-11T20:16:15.756Z,12.07
2018-06-11T20:18:46.117Z,9.33
2018-06-11T20:21:17.285Z,10.37
2018-06-11T20:23:47.642Z,10.80
2018-06-11T20:26:18.012Z,10.47
2018-06-11T20:28:49.158Z,11.03
2018-06-11T20:31:20.297Z,12.30
2018-06-11T20:33:51.441Z,12.60
2018-06-11T20:36:22.599Z,12.80
2018-06-11T20:38:52.977Z,11.13
2018-06-11T20:41:25.788Z,8.03
2018-06-11T20:43:56.947Z,8.57
2018-06-11T20:46:27.317Z,5.70
2018-06-11T20:48:58.704Z,5.50
2018-06-11T20:51:30.120Z,8.57
2018-06-11T20:54:00.491Z,6.43
2018-06-11T20:56:30.853Z,6.40
2018-06-11T20:59:05.330Z,3.80
2018-06-11T21:01:35.695Z,3.70
2018-06-11T21:04:06.073Z,3.87
2018-06-11T21:06:36.450Z,3.30
2018-06-11T21:09:07.842Z,3.73
2018-06-11T21:11:41.354Z,3.13
2018-06-11T21:14:11.720Z,3.17
2018-06-11T21:16:42.281Z,3.40
2018-06-11T21:19:12.609Z,3.57
2018-06-11T21:22:02.334Z,3.53
2018-06-11T21:24:33.487Z,3.53
2018-06-11T21:27:04.620Z,3.60
2018-06-11T21:29:34.981Z,3.37
2018-06-11T21:32:07.421Z,3.47
2018-06-11T21:34:37.795Z,2.60
2018-06-11T21:37:27.567Z,3.27
2018-06-11T21:39:57.923Z,2.90
2018-06-11T21:42:28.293Z,2.80
2018-06-11T21:44:58.687Z,4.27
2018-06-11T21:47:29.061Z,3.57
2018-06-11T21:49:59.429Z,6.70
2018-06-11T21:52:29.825Z,6.93
2018-06-11T21:55:04.330Z,5.23
2018-06-11T21:57:34.699Z,4.80
2018-06-11T22:00:05.038Z,4.27
2018-06-11T22:02:35.408Z,5.03
2018-06-11T22:05:05.779Z,4.93
2018-06-11T22:07:36.169Z,4.80
2018-06-11T22:10:06.559Z,4.13
2018-06-11T22:12:37.697Z,5.77
2018-06-11T22:15:08.858Z,5.27
2018-06-11T22:17:39.421Z,4.87
2018-06-11T22:20:12.887Z,4.67
2018-06-11T22:22:43.276Z,4.77
2018-06-11T22:25:13.646Z,6.43
2018-06-11T22:27:44.013Z,7.10
2018-06-11T22:30:19.555Z,8.23
2018-06-11T22:32:49.837Z,7.23
2018-06-11T22:35:20.971Z,8.77
2018-06-11T22:37:52.139Z,10.63
2018-06-11T22:40:22.504Z,9.43
2018-06-11T22:42:52.879Z,12.20
2018-06-11T22:45:23.972Z,9.70
2018-06-11T22:47:55.363Z,11.27
2018-06-11T22:50:26.499Z,9.97
2018-06-11T22:52:57.676Z,11.73
2018-06-11T22:55:28.043Z,7.73
2018-06-11T22:57:58.413Z,10.00
2018-06-11T23:03:17.552Z,13.20
2018-06-11T23:05:47.935Z,13.07
2018-06-11T23:08:18.311Z,12.03
2018-06-11T23:10:48.686Z,12.57
2018-06-11T23:13:19.061Z,17.10
2018-06-11T23:15:49.434Z,13.17
2018-06-11T23:18:19.801Z,15.70
2018-06-11T23:21:10.577Z,12.77
2018-06-11T23:23:41.972Z,13.13
2018-06-11T23:26:12.345Z,13.37
2018-06-11T23:28:42.747Z,19.90
2018-06-11T23:31:13.874Z,15.80
2018-06-11T23:33:44.186Z,21.67
2018-06-11T23:36:14.573Z,17.57
2018-06-11T23:38:45.033Z,16.20
2018-06-11T23:41:15.280Z,13.63
2018-06-11T23:43:45.671Z,40.83
2018-06-11T23:46:22.190Z,27.70
2018-06-11T23:48:52.592Z,18.23
2018-06-11T23:51:22.967Z,14.77
2018-06-11T23:53:53.350Z,14.83
2018-06-11T23:56:24.392Z,14.17
2018-06-11T23:58:54.949Z,13.80
